createdAt,value
2022-09-21T00:07:32.210Z,96824.59
2022-09-21T00:22:34.295Z,96845.34
2022-09-21T00:37:36.211Z,96852.09
2022-09-21T00:52:39.172Z,96848.75
2022-09-21T01:07:42.118Z,96841.19
2022-09-21T01:23:02.731Z,96839.22
2022-09-21T01:38:11.878Z,96845.78
2022-09-21T01:53:16.063Z,96844.16
2022-09-21T02:08:18.379Z,96831.31
2022-09-21T02:23:22.723Z,96845.63
2022-09-21T02:38:28.588Z,96835.72
2022-09-21T02:53:31.863Z,96844.88
2022-09-21T03:08:33.854Z,96853.69
2022-09-21T03:23:35.935Z,96861.69
2022-09-21T03:38:38.231Z,96862.69
2022-09-21T03:53:40.139Z,96859.81
2022-09-21T04:08:43.761Z,96860.97
2022-09-21T04:23:45.814Z,96863.94
2022-09-21T04:38:47.805Z,96867.38
2022-09-21T04:53:49.952Z,96883.31
2022-09-21T05:09:10.668Z,96889.38
2022-09-21T05:24:12.673Z,96904.16
2022-09-21T05:39:14.650Z,96918.91
2022-09-21T05:54:20.363Z,96918.03
2022-09-21T06:09:22.350Z,96899.41
2022-09-21T06:24:25.227Z,96890.97
2022-09-21T06:39:27.275Z,96890.97
2022-09-21T06:54:29.193Z,96890.63
2022-09-21T07:24:53.213Z,96896.84
2022-09-21T07:39:55.206Z,96900.91
2022-09-21T08:11:27.601Z,96910.69
2022-09-21T08:26:29.786Z,96909.13
2022-09-21T08:41:47.866Z,96903.56
2022-09-21T08:57:04.441Z,96901.09
2022-09-21T09:12:11.393Z,96901.50
2022-09-21T09:27:23.875Z,96887.84
2022-09-21T09:42:44.250Z,96888.91
2022-09-21T09:57:46.901Z,96880.22
2022-09-21T10:12:48.824Z,96882.06
2022-09-21T10:27:50.975Z,96856.88
2022-09-21T10:42:54.290Z,96849.06
2022-09-21T10:57:56.173Z,96855.19
2022-09-21T11:13:07.246Z,96857.72
2022-09-21T11:28:15.386Z,96841.91
2022-09-21T11:43:24.167Z,96844.44
2022-09-21T11:58:44.253Z,96823.91
2022-09-21T12:13:50.572Z,96817.66
2022-09-21T12:29:02.803Z,96812.00
2022-09-21T12:44:51.915Z,96806.84
2022-09-21T13:00:00.845Z,96804.22
2022-09-21T13:15:13.190Z,96806.00
2022-09-21T13:30:20.158Z,96781.84
2022-09-21T13:45:24.046Z,96784.88
2022-09-21T14:00:33.639Z,96776.41
2022-09-21T14:15:39.035Z,96761.31
2022-09-21T14:30:42.763Z,96751.31
2022-09-21T14:45:56.867Z,96743.69
2022-09-21T15:01:15.290Z,96730.28
2022-09-21T15:16:21.788Z,96725.97
2022-09-21T15:31:23.878Z,96714.34
2022-09-21T15:46:25.872Z,96712.66
2022-09-21T16:01:28.139Z,96708.25
2022-09-21T16:16:30.159Z,96709.38
2022-09-21T16:31:33.085Z,96725.41
2022-09-21T16:46:35.421Z,96728.69
2022-09-21T17:01:37.391Z,96733.84
2022-09-21T17:16:39.298Z,96731.97
2022-09-21T17:31:41.198Z,96729.91
2022-09-21T17:46:47.949Z,96735.19
2022-09-21T18:01:50.293Z,96741.81
2022-09-21T18:17:07.724Z,96742.13
2022-09-21T18:32:16.400Z,96755.06
2022-09-21T18:47:24.865Z,96772.56
2022-09-21T19:02:27.233Z,96784.13
2022-09-21T19:17:34.181Z,96785.16
2022-09-21T19:32:38.579Z,96774.72
2022-09-21T19:47:44.444Z,96777.94
2022-09-21T20:02:49.782Z,96792.28
2022-09-21T20:17:54.483Z,96784.50
2022-09-21T20:32:57.043Z,96777.16
2022-09-21T20:48:12.897Z,96776.69
2022-09-21T21:03:14.997Z,96790.59
2022-09-21T21:18:17.691Z,96798.13
2022-09-21T21:33:19.664Z,96789.13
2022-09-21T21:48:21.496Z,96787.53
2022-09-21T22:03:23.367Z,96787.19
2022-09-21T22:18:26.873Z,96795.88
2022-09-21T22:33:33.262Z,96777.19
2022-09-21T22:48:35.345Z,96775.59
2022-09-21T23:03:37.317Z,96782.41
2022-09-21T23:18:39.831Z,96767.16
2022-09-21T23:33:42.765Z,96764.97
2022-09-21T23:48:44.770Z,96759.00
